createdAt,value
2019-01-23T00:32:54.650Z,39.93
2019-01-23T00:35:23.856Z,32.90
2019-01-23T00:37:53.605Z,44.57
2019-01-23T00:40:22.896Z,35.80
2019-01-23T00:42:52.229Z,31.03
2019-01-23T00:45:21.620Z,39.23
2019-01-23T00:47:51.155Z,40.27
2019-01-23T00:50:20.475Z,33.57
2019-01-23T00:52:49.803Z,41.57
2019-01-23T00:55:19.281Z,41.00
2019-01-23T00:57:48.763Z,34.47
2019-01-23T01:00:22.778Z,39.50
2019-01-23T01:02:52.172Z,38.93
2019-01-23T01:05:21.633Z,38.70
2019-01-23T01:07:50.976Z,35.87
2019-01-23T01:10:20.367Z,32.57
2019-01-23T01:12:49.662Z,33.83
2019-01-23T01:15:19.042Z,34.07
2019-01-23T01:17:48.462Z,35.43
2019-01-23T01:20:17.848Z,38.17
2019-01-23T01:22:47.353Z,38.47
2019-01-23T01:25:17.802Z,35.57
2019-01-23T01:27:47.176Z,31.40
2019-01-23T01:30:18.936Z,35.93
2019-01-23T01:32:48.362Z,35.43
2019-01-23T01:35:17.901Z,37.97
2019-01-23T01:37:47.266Z,34.43
2019-01-23T01:40:17.487Z,25.63
2019-01-23T01:42:46.880Z,34.27
2019-01-23T01:45:17.550Z,25.70
2019-01-23T01:47:46.926Z,28.43
2019-01-23T01:50:20.849Z,35.73
2019-01-23T01:52:50.270Z,30.53
2019-01-23T01:55:19.566Z,31.63
2019-01-23T01:57:48.962Z,34.10
2019-01-23T02:00:20.364Z,30.50
2019-01-23T02:02:49.607Z,29.00
2019-01-23T02:05:18.958Z,31.57
2019-01-23T02:07:48.308Z,35.80
2019-01-23T02:10:20.041Z,33.47
2019-01-23T02:12:50.463Z,35.03
2019-01-23T02:15:20.257Z,31.80
2019-01-23T02:17:49.935Z,26.17
2019-01-23T02:20:24.586Z,30.53
2019-01-23T02:22:53.928Z,32.80
2019-01-23T02:25:23.354Z,28.83
2019-01-23T02:27:52.922Z,22.90
2019-01-23T02:30:24.073Z,29.63
2019-01-23T02:32:53.880Z,29.70
2019-01-23T02:35:23.309Z,29.37
2019-01-23T02:37:52.847Z,28.83
2019-01-23T02:40:23.466Z,31.63
2019-01-23T02:42:52.938Z,30.37
2019-01-23T02:45:23.070Z,24.13
2019-01-23T02:47:52.636Z,29.57
2019-01-23T02:50:21.956Z,25.07
2019-01-23T02:52:51.430Z,32.60
2019-01-23T02:55:20.713Z,29.67
2019-01-23T02:57:50.170Z,33.03
2019-01-23T03:00:20.479Z,31.07
2019-01-23T03:02:50.598Z,33.07
2019-01-23T03:05:22.372Z,30.77
2019-01-23T03:07:51.775Z,34.73
2019-01-23T03:10:22.194Z,29.53
2019-01-23T03:12:52.553Z,32.43
2019-01-23T03:15:21.870Z,31.40
2019-01-23T03:17:51.379Z,28.77
2019-01-23T03:20:21.124Z,30.37
2019-01-23T03:22:50.535Z,30.00
2019-01-23T03:25:19.922Z,33.30
2019-01-23T03:27:49.359Z,31.93
2019-01-23T03:30:21.317Z,30.73
2019-01-23T03:32:50.842Z,32.83
2019-01-23T03:35:20.252Z,28.37
2019-01-23T03:37:49.751Z,30.57
2019-01-23T03:40:20.565Z,32.13
2019-01-23T03:42:50.386Z,31.07
2019-01-23T03:45:19.794Z,37.00
2019-01-23T03:47:49.096Z,30.33
2019-01-23T03:50:19.406Z,32.80
2019-01-23T03:52:48.896Z,31.00
2019-01-23T03:55:18.677Z,34.20
2019-01-23T03:57:48.165Z,31.03
2019-01-23T04:00:19.424Z,33.37
2019-01-23T04:02:49.222Z,33.07
2019-01-23T04:05:18.786Z,35.60
2019-01-23T04:07:48.257Z,33.10
2019-01-23T04:10:17.633Z,30.23
2019-01-23T04:12:47.095Z,30.30
2019-01-23T04:15:16.628Z,33.80
2019-01-23T04:17:46.322Z,32.10
2019-01-23T04:20:20.221Z,32.70
2019-01-23T04:22:49.672Z,34.30
2019-01-23T04:25:19.139Z,34.73
2019-01-23T04:27:58.280Z,36.33
2019-01-23T04:30:27.656Z,33.27
2019-01-23T04:32:57.832Z,32.37
2019-01-23T04:35:27.236Z,29.97
2019-01-23T04:37:56.727Z,34.17
2019-01-23T04:40:26.055Z,33.70
2019-01-23T04:42:55.553Z,31.07
2019-01-23T04:45:24.937Z,32.80
2019-01-23T04:47:54.356Z,33.93
2019-01-23T04:50:23.697Z,36.87
2019-01-23T04:53:09.525Z,33.43
2019-01-23T04:55:40.319Z,35.30
2019-01-23T04:58:09.670Z,35.07
2019-01-23T05:00:41.071Z,33.77
2019-01-23T05:03:10.426Z,37.17
2019-01-23T05:05:39.822Z,34.77
2019-01-23T05:08:09.178Z,35.50
2019-01-23T05:10:38.501Z,31.47
2019-01-23T05:13:07.803Z,33.17
2019-01-23T05:15:37.247Z,37.00
2019-01-23T05:18:08.338Z,35.63
2019-01-23T05:20:37.751Z,34.67
2019-01-23T05:23:07.238Z,36.83
2019-01-23T05:25:36.572Z,33.23
2019-01-23T05:28:05.867Z,33.73
2019-01-23T05:30:35.211Z,34.53
2019-01-23T05:33:04.616Z,32.53
2019-01-23T05:35:34.151Z,34.50
2019-01-23T05:38:03.516Z,34.83
2019-01-23T05:40:32.860Z,34.70
2019-01-23T05:43:02.180Z,37.30
2019-01-23T05:45:33.392Z,32.83
2019-01-23T05:48:02.761Z,37.70
2019-01-23T05:50:32.099Z,34.27
2019-01-23T05:53:01.490Z,35.30
2019-01-23T05:55:30.914Z,38.93
2019-01-23T05:58:00.407Z,36.17
2019-01-23T06:00:30.341Z,37.20
2019-01-23T06:02:59.916Z,37.50
2019-01-23T06:05:31.270Z,39.63
2019-01-23T06:08:00.880Z,39.40
2019-01-23T06:10:30.289Z,38.40
2019-01-23T06:12:59.519Z,40.50
2019-01-23T06:15:29.114Z,37.63
2019-01-23T06:17:58.709Z,38.77
2019-01-23T06:20:47.541Z,36.53
2019-01-23T06:23:18.085Z,39.03
2019-01-23T06:25:47.551Z,41.37
2019-01-23T06:28:19.121Z,40.00
2019-01-23T06:30:48.386Z,36.40
2019-01-23T06:36:49.169Z,41.50
2019-01-23T06:39:22.279Z,47.17
2019-01-23T06:41:51.651Z,40.93
2019-01-23T06:44:24.587Z,42.20
2019-01-23T06:46:55.156Z,44.40
2019-01-23T06:49:24.908Z,41.43
2019-01-23T06:51:54.617Z,39.90
2019-01-23T06:54:53.159Z,34.90
2019-01-23T06:57:20.039Z,41.43
2019-01-23T06:59:49.918Z,42.13
2019-01-23T07:02:19.746Z,44.20
2019-01-23T07:04:49.394Z,43.60
2019-01-23T07:07:21.350Z,43.33
2019-01-23T07:10:01.838Z,39.43
2019-01-23T07:12:31.207Z,40.33
2019-01-23T07:15:26.421Z,40.63
2019-01-23T07:17:55.528Z,41.80
2019-01-23T07:20:26.136Z,42.57
2019-01-23T07:23:14.547Z,43.23
2019-01-23T07:25:43.686Z,38.93
2019-01-23T07:28:19.715Z,45.17
2019-01-23T07:30:58.125Z,37.13
2019-01-23T07:33:27.187Z,42.87
2019-01-23T07:35:56.381Z,43.63
2019-01-23T07:39:13.331Z,38.83
2019-01-23T07:41:42.984Z,45.07
2019-01-23T07:44:19.441Z,36.73
2019-01-23T07:46:48.626Z,43.93
2019-01-23T07:49:17.779Z,39.47
2019-01-23T07:51:46.937Z,44.27
2019-01-23T07:54:16.194Z,42.33
2019-01-23T07:56:45.226Z,43.83
2019-01-23T07:59:14.385Z,37.80
2019-01-23T08:01:48.065Z,40.47
2019-01-23T08:04:16.962Z,42.47
2019-01-23T08:06:46.088Z,40.50
2019-01-23T08:09:15.202Z,41.97
2019-01-23T08:11:44.366Z,39.37
2019-01-23T08:14:13.578Z,39.97
2019-01-23T08:16:42.687Z,46.13
2019-01-23T08:19:32.850Z,39.10
2019-01-23T08:22:02.027Z,45.13
2019-01-23T08:24:31.152Z,38.53
2019-01-23T08:27:06.873Z,36.50
2019-01-23T08:29:31.255Z,43.30
2019-01-23T08:32:00.473Z,42.37
2019-01-23T08:34:29.640Z,43.63
2019-01-23T08:36:58.843Z,38.03
2019-01-23T08:39:31.280Z,41.07
2019-01-23T08:42:00.543Z,36.03
2019-01-23T08:44:29.681Z,38.77
2019-01-23T08:46:58.912Z,45.90
2019-01-23T08:49:28.327Z,41.93
2019-01-23T08:51:57.493Z,42.87
2019-01-23T08:54:26.645Z,39.77
2019-01-23T08:56:55.757Z,41.33
2019-01-23T08:59:24.845Z,40.77
2019-01-23T09:01:53.938Z,42.40
2019-01-23T09:04:23.092Z,38.87
2019-01-23T09:06:52.391Z,38.53
2019-01-23T09:09:26.017Z,36.83
2019-01-23T09:11:55.134Z,37.60
2019-01-23T09:14:24.236Z,33.93
2019-01-23T09:16:53.563Z,38.80
2019-01-23T09:19:22.843Z,33.07
2019-01-23T09:21:52.046Z,39.80
2019-01-23T09:24:21.453Z,36.70
2019-01-23T09:26:50.710Z,34.97
2019-01-23T09:29:19.967Z,36.53
2019-01-23T09:32:17.268Z,32.50
2019-01-23T09:35:19.068Z,33.50
2019-01-23T09:38:24.382Z,37.77
2019-01-23T09:41:04.228Z,33.33
2019-01-23T09:44:14.793Z,31.57
2019-01-23T09:47:10.518Z,36.57
2019-01-23T09:50:16.523Z,37.80
2019-01-23T09:53:02.102Z,37.53
2019-01-23T09:55:31.479Z,31.47
2019-01-23T09:58:07.529Z,35.90
2019-01-23T10:00:36.732Z,35.20
2019-01-23T10:03:05.846Z,35.30
2019-01-23T10:05:35.019Z,33.13
2019-01-23T10:08:04.288Z,35.77
2019-01-23T10:10:33.490Z,32.97
2019-01-23T10:13:02.795Z,30.87
2019-01-23T10:15:50.748Z,27.87
2019-01-23T10:18:20.147Z,31.60
2019-01-23T10:20:49.318Z,27.17
2019-01-23T10:23:18.419Z,30.73
2019-01-23T10:25:47.608Z,28.73
2019-01-23T10:28:20.629Z,29.77
2019-01-23T10:30:50.037Z,31.17
2019-01-23T10:33:20.099Z,29.77
2019-01-23T10:35:49.329Z,29.30
2019-01-23T10:38:18.546Z,32.87
2019-01-23T10:40:47.709Z,29.73
2019-01-23T10:43:16.910Z,31.83
2019-01-23T10:45:46.665Z,28.87
2019-01-23T10:48:16.780Z,27.73
2019-01-23T10:50:46.087Z,29.90
2019-01-23T10:53:15.350Z,29.67
2019-01-23T10:55:44.508Z,28.83
2019-01-23T10:58:14.044Z,28.80
2019-01-23T11:00:43.276Z,27.73
2019-01-23T11:03:12.557Z,28.90
2019-01-23T11:05:41.675Z,29.63
2019-01-23T11:08:10.896Z,30.40
2019-01-23T11:10:40.095Z,28.83
2019-01-23T11:13:11.164Z,28.47
2019-01-23T11:15:43.091Z,27.97
2019-01-23T11:18:12.523Z,31.07
2019-01-23T11:20:41.818Z,28.23
2019-01-23T11:23:11.302Z,27.37
2019-01-23T11:25:40.612Z,30.23
2019-01-23T11:28:09.874Z,32.13
2019-01-23T11:30:39.200Z,29.37
2019-01-23T11:33:08.483Z,32.60
2019-01-23T11:35:37.570Z,36.40
2019-01-23T11:38:06.771Z,33.67
2019-01-23T11:40:36.860Z,32.60
2019-01-23T11:43:15.910Z,31.80
2019-01-23T11:45:45.804Z,30.07
2019-01-23T11:48:35.809Z,32.27
2019-01-23T11:51:06.782Z,31.30
2019-01-23T11:53:37.901Z,31.67
2019-01-23T11:56:30.624Z,26.53
2019-01-23T15:19:40.579Z,38.23
2019-01-23T15:22:10.715Z,34.47
2019-01-23T15:24:43.179Z,32.10
2019-01-23T15:27:12.536Z,32.40
2019-01-23T15:29:41.712Z,37.90
2019-01-23T15:32:17.450Z,32.93
2019-01-23T15:34:48.373Z,37.33
2019-01-23T15:37:17.503Z,35.30
2019-01-23T15:39:46.655Z,36.87
2019-01-23T15:42:15.922Z,36.57
2019-01-23T15:44:45.205Z,40.00
2019-01-23T15:47:14.506Z,38.33
2019-01-23T15:49:43.827Z,35.70
2019-01-23T15:52:12.974Z,34.27
2019-01-23T15:54:42.375Z,37.37
2019-01-23T15:57:11.461Z,37.10
2019-01-23T15:59:40.687Z,36.73
2019-01-23T16:02:09.899Z,38.20
2019-01-23T16:04:39.343Z,36.87
2019-01-23T16:07:08.948Z,39.67
2019-01-23T16:09:38.514Z,36.60
2019-01-23T16:12:08.053Z,36.47
2019-01-23T16:14:37.569Z,41.03
2019-01-23T16:17:07.161Z,39.47
2019-01-23T16:19:37.414Z,42.53
2019-01-23T16:22:06.831Z,43.07
2019-01-23T16:24:36.235Z,44.57
2019-01-23T16:27:07.631Z,42.27
2019-01-23T16:29:37.087Z,45.47
2019-01-23T16:32:06.437Z,41.47
2019-01-23T16:34:35.888Z,40.63
2019-01-23T16:37:07.721Z,42.97
2019-01-23T16:39:37.686Z,46.10
2019-01-23T16:42:07.497Z,43.20
2019-01-23T16:44:44.115Z,45.47
2019-01-23T16:47:13.732Z,51.87
2019-01-23T16:49:43.308Z,46.50
2019-01-23T16:52:12.833Z,48.30
2019-01-23T16:54:42.335Z,46.80
2019-01-23T16:57:11.913Z,47.20
2019-01-23T16:59:41.421Z,46.30
2019-01-23T17:02:17.914Z,42.40
2019-01-23T17:04:48.457Z,47.10
2019-01-23T17:07:19.270Z,41.23
2019-01-23T17:09:49.120Z,45.13
2019-01-23T17:12:18.983Z,50.17
2019-01-23T17:14:50.052Z,40.50
2019-01-23T17:17:20.008Z,42.47
2019-01-23T17:19:50.518Z,43.20
2019-01-23T17:22:21.560Z,45.40
2019-01-23T17:24:51.482Z,42.73
2019-01-23T17:27:21.783Z,48.20
2019-01-23T17:29:51.573Z,48.80
2019-01-23T17:32:21.811Z,43.33
2019-01-23T17:34:51.523Z,39.60
2019-01-23T17:37:24.245Z,41.10
2019-01-23T17:40:07.919Z,48.93
2019-01-23T17:42:38.199Z,45.90
2019-01-23T17:45:25.617Z,42.10
2019-01-23T17:48:29.647Z,54.53
2019-01-23T17:51:03.101Z,49.37
2019-01-23T17:53:32.405Z,44.30
2019-01-23T17:56:01.543Z,42.77
2019-01-23T17:58:30.902Z,42.93
2019-01-23T18:01:04.776Z,43.70
2019-01-23T18:03:34.001Z,37.67
2019-01-23T18:06:03.183Z,42.03
2019-01-23T18:08:32.814Z,45.23
2019-01-23T18:11:01.926Z,43.37
2019-01-23T18:13:31.342Z,42.47
2019-01-23T18:16:10.031Z,40.23
2019-01-23T18:18:39.286Z,43.87
2019-01-23T18:21:08.915Z,43.53
2019-01-23T18:23:38.181Z,45.93
2019-01-23T18:26:07.402Z,43.40
2019-01-23T18:28:42.361Z,41.60
2019-01-23T18:31:53.509Z,44.83
2019-01-23T18:35:07.130Z,48.60
2019-01-23T18:38:06.726Z,42.60
2019-01-23T18:41:47.465Z,55.00
2019-01-23T18:44:47.320Z,40.27
2019-01-23T18:47:45.365Z,46.60
2019-01-23T18:50:45.230Z,48.30
2019-01-23T18:53:14.426Z,45.00
2019-01-23T18:55:43.587Z,45.10
2019-01-23T18:58:12.846Z,47.43
2019-01-23T19:00:42.144Z,49.93
2019-01-23T19:03:11.837Z,49.37
2019-01-23T19:05:45.978Z,47.37
2019-01-23T19:08:24.096Z,46.03
2019-01-23T19:10:56.768Z,46.23
2019-01-23T19:13:56.556Z,43.23
2019-01-23T19:16:31.455Z,43.63
2019-01-23T19:19:01.844Z,48.57
2019-01-23T19:21:34.501Z,46.67
2019-01-23T19:24:51.795Z,45.83
2019-01-23T19:27:22.611Z,48.70
2019-01-23T19:29:53.020Z,47.97
2019-01-23T19:33:13.262Z,44.83
2019-01-23T19:35:49.317Z,56.33
2019-01-23T19:38:26.711Z,43.40
2019-01-23T19:41:04.748Z,49.83
2019-01-23T20:44:25.636Z,47.27
2019-01-23T20:47:14.425Z,51.27
2019-01-23T20:49:43.571Z,50.50
2019-01-23T20:52:12.664Z,45.30
2019-01-23T20:54:43.908Z,41.53
2019-01-23T20:57:14.861Z,44.67
2019-01-23T20:59:44.097Z,46.30
2019-01-23T21:02:13.257Z,42.83
2019-01-23T21:04:42.315Z,44.57
2019-01-23T21:07:11.359Z,45.87
2019-01-23T21:09:40.458Z,46.93
2019-01-23T21:12:09.585Z,42.93
2019-01-23T21:14:41.335Z,45.50
2019-01-23T21:17:10.396Z,44.57
2019-01-23T21:19:41.544Z,42.90
2019-01-23T21:22:10.609Z,47.40
2019-01-23T21:24:39.850Z,40.60
2019-01-23T21:27:08.867Z,44.53
2019-01-23T21:29:37.921Z,46.13
2019-01-23T21:32:06.953Z,43.63
2019-01-23T21:34:35.996Z,41.97
2019-01-23T21:37:05.290Z,48.13
2019-01-23T21:39:34.851Z,44.30
2019-01-23T21:42:03.942Z,44.57
2019-01-23T21:44:33.034Z,44.37
2019-01-23T21:47:02.087Z,43.70
2019-01-23T21:49:31.102Z,42.43
2019-01-23T21:52:04.815Z,45.40
2019-01-23T21:54:39.146Z,40.83
2019-01-23T21:57:09.092Z,46.33
2019-01-23T21:59:38.149Z,46.17
2019-01-23T22:02:07.394Z,51.30
2019-01-23T22:04:36.436Z,37.77
2019-01-23T22:07:05.537Z,47.27
2019-01-23T22:09:34.602Z,30.63
2019-01-23T22:12:03.754Z,42.50
2019-01-23T22:14:32.827Z,44.67
2019-01-23T22:17:02.112Z,45.50
2019-01-23T22:19:31.148Z,48.17
2019-01-23T22:22:00.202Z,44.37
2019-01-23T22:24:29.257Z,41.80
2019-01-23T22:26:58.330Z,51.50
2019-01-23T22:29:27.385Z,48.73
2019-01-23T22:31:56.502Z,48.50
2019-01-23T22:34:25.529Z,46.40
2019-01-23T22:36:57.563Z,43.37
2019-01-23T22:39:26.594Z,48.50
2019-01-23T22:41:55.630Z,41.57
2019-01-23T22:44:25.886Z,49.80
2019-01-23T22:46:54.926Z,52.47
2019-01-23T22:49:23.956Z,49.63
2019-01-23T22:51:52.928Z,46.23
2019-01-23T22:54:21.992Z,48.43
2019-01-23T22:56:52.261Z,50.17
2019-01-23T22:59:21.277Z,43.93
2019-01-23T23:01:50.224Z,46.27
2019-01-23T23:04:19.283Z,45.30
2019-01-23T23:06:48.337Z,43.67
2019-01-23T23:09:17.389Z,42.93
2019-01-23T23:11:46.436Z,43.97
2019-01-23T23:14:15.452Z,43.40
2019-01-23T23:16:44.539Z,48.77
2019-01-23T23:19:13.530Z,48.83
2019-01-23T23:21:42.496Z,49.47
2019-01-23T23:24:11.509Z,45.13
2019-01-23T23:26:40.571Z,48.80
2019-01-23T23:29:09.484Z,46.30
2019-01-23T23:31:38.519Z,45.40
2019-01-23T23:34:10.019Z,50.83
2019-01-23T23:36:38.335Z,51.67
2019-01-23T23:39:09.759Z,50.77
2019-01-23T23:41:38.831Z,48.57
2019-01-23T23:44:07.844Z,46.30
2019-01-23T23:46:36.905Z,56.03
2019-01-23T23:49:05.931Z,50.70
2019-01-23T23:51:34.976Z,55.03
2019-01-23T23:54:03.924Z,45.10
2019-01-23T23:56:32.969Z,44.77
2019-01-23T23:59:02.026Z,51.13
